Time;durP1;ratioP1;P1;durP2;ratioP2;P2;SDS_P1;SDS_P2;PMS_P1;PMS_P2;Temp;Humidity;BMP_temperature;BMP_pressure;BME280_temperature;BME280_humidity;BME280_pressure;Samples;Min_cycle;Max_cycle;Signal;HPM_P1;HPM_P2
2024/02/28 00:01:08;;;;;;;28.00;17.95;;;7.60;1.00;;;;;;7366904;19;20010;-70
2024/02/28 00:03:38;;;;;;;25.20;18.15;;;7.60;1.00;;;;;;7366663;19;20015;-70
2024/02/28 00:06:08;;;;;;;26.35;17.42;;;7.50;1.00;;;;;;7367634;19;20036;-71
2024/02/28 00:08:38;;;;;;;25.65;17.35;;;7.50;1.00;;;;;;7367966;19;20010;-70
2024/02/28 00:11:08;;;;;;;29.08;18.13;;;7.50;1.00;;;;;;7368364;19;20511;-71
2024/02/28 00:13:38;;;;;;;25.23;17.13;;;7.50;1.00;;;;;;7365850;19;20018;-70
2024/02/28 00:16:11;;;;;;;28.70;18.67;;;7.50;1.00;;;;;;7366397;19;20038;-71
2024/02/28 00:18:41;;;;;;;29.77;18.45;;;7.50;1.00;;;;;;7364134;19;20017;-70
2024/02/28 00:21:11;;;;;;;27.27;17.35;;;7.50;1.00;;;;;;7365266;19;20014;-70
2024/02/28 00:23:41;;;;;;;27.45;17.67;;;7.50;1.00;;;;;;7363559;19;20014;-70
2024/02/28 00:26:11;;;;;;;28.88;17.58;;;7.50;1.00;;;;;;7366012;19;20007;-70
2024/02/28 00:28:41;;;;;;;28.00;17.55;;;7.50;1.00;;;;;;7373232;19;20002;-70
2024/02/28 00:31:14;;;;;;;28.33;17.27;;;7.50;1.00;;;;;;7372759;19;20011;-70
2024/02/28 00:33:41;;;;;;;30.00;18.92;;;7.50;1.00;;;;;;7371291;19;20010;-70
2024/02/28 00:36:11;;;;;;;28.17;17.95;;;7.50;1.00;;;;;;7371560;19;20010;-70
2024/02/28 00:38:41;;;;;;;28.30;18.08;;;7.50;1.00;;;;;;7372080;19;20488;-70
2024/02/28 00:41:11;;;;;;;26.98;18.15;;;7.50;1.00;;;;;;7373468;19;20110;-70
2024/02/28 00:43:41;;;;;;;29.83;18.92;;;7.50;1.00;;;;;;7371837;19;20011;-70
2024/02/28 00:46:14;;;;;;;28.42;18.25;;;7.50;1.00;;;;;;7372309;19;20353;-70
2024/02/28 00:48:44;;;;;;;25.67;17.45;;;7.50;1.00;;;;;;7372360;19;20542;-71
2024/02/28 00:51:14;;;;;;;27.30;18.13;;;7.40;1.00;;;;;;7372146;19;20028;-71
2024/02/28 00:53:44;;;;;;;26.65;17.80;;;7.40;1.00;;;;;;7371596;19;20023;-70
2024/02/28 00:56:14;;;;;;;27.95;18.58;;;7.50;1.00;;;;;;7371629;19;20011;-70
2024/02/28 00:58:47;;;;;;;29.65;18.45;;;7.40;1.00;;;;;;7371428;19;20019;-71
2024/02/28 01:01:19;;;;;;;27.42;17.70;;;7.40;1.00;;;;;;7373085;19;20029;-71
2024/02/28 01:03:49;;;;;;;28.27;17.75;;;7.40;1.00;;;;;;7371294;19;20038;-71
2024/02/28 01:06:20;;;;;;;27.65;18.90;;;7.40;1.00;;;;;;7372920;19;20476;-71
2024/02/28 01:08:50;;;;;;;27.10;17.73;;;7.40;1.00;;;;;;7372122;19;20043;-71
2024/02/28 01:11:20;;;;;;;27.67;18.33;;;7.40;1.00;;;;;;7371245;19;20112;-71
2024/02/28 01:13:50;;;;;;;30.52;19.50;;;7.40;1.00;;;;;;7369838;19;20620;-71
2024/02/28 01:16:23;;;;;;;28.77;18.50;;;7.30;1.00;;;;;;7368954;19;20101;-70
2024/02/28 01:18:53;;;;;;;28.10;17.08;;;7.40;1.00;;;;;;7370646;19;20017;-70
2024/02/28 01:21:23;;;;;;;28.90;18.52;;;7.30;1.00;;;;;;7371885;19;20018;-70
2024/02/28 01:23:54;;;;;;;30.15;18.58;;;7.40;1.00;;;;;;7370919;19;20084;-72
2024/02/28 01:26:25;;;;;;;26.48;18.45;;;7.30;1.00;;;;;;7370901;19;20418;-69
2024/02/28 01:28:55;;;;;;;30.98;20.45;;;7.30;1.00;;;;;;7373508;19;20015;-69
2024/02/28 01:31:28;;;;;;;30.48;18.63;;;7.30;1.00;;;;;;7371756;19;20017;-71
2024/02/28 01:33:58;;;;;;;28.33;18.85;;;7.30;1.00;;;;;;7371511;19;20026;-71
2024/02/28 01:36:28;;;;;;;28.17;18.05;;;7.30;1.00;;;;;;7372492;19;20015;-70
2024/02/28 01:38:58;;;;;;;30.02;18.73;;;7.30;1.00;;;;;;7369107;19;20082;-72
2024/02/28 01:41:28;;;;;;;28.77;18.58;;;7.20;1.00;;;;;;7371409;19;20011;-71
2024/02/28 01:43:58;;;;;;;31.80;20.08;;;7.20;1.00;;;;;;7369079;19;20692;-71
2024/02/28 01:46:31;;;;;;;31.17;18.95;;;7.20;1.00;;;;;;7368784;19;20010;-71
2024/02/28 01:49:02;;;;;;;30.05;19.58;;;7.20;1.00;;;;;;7370436;19;20020;-71
2024/02/28 01:51:32;;;;;;;28.60;19.10;;;7.10;1.00;;;;;;7371503;19;20551;-71
2024/02/28 01:54:02;;;;;;;31.27;18.88;;;7.10;1.00;;;;;;7370155;19;20046;-71
2024/02/28 01:56:33;;;;;;;29.13;18.08;;;7.10;1.00;;;;;;7369345;19;20046;-69
2024/02/28 01:59:04;;;;;;;26.33;16.95;;;7.00;1.00;;;;;;7371229;19;20475;-69
2024/02/28 02:01:37;;;;;;;26.85;17.75;;;7.00;1.00;;;;;;7368417;19;20063;-71
2024/02/28 02:04:07;;;;;;;27.75;17.77;;;7.00;1.00;;;;;;7366579;19;20048;-71
2024/02/28 02:06:42;;;;;;;28.27;18.02;;;6.90;1.00;;;;;;7370296;19;20018;-70
2024/02/28 02:09:12;;;;;;;29.23;18.20;;;7.00;1.00;;;;;;7370434;19;20077;-71
2024/02/28 02:11:42;;;;;;;26.90;16.92;;;6.90;1.00;;;;;;7370256;19;20014;-71
2024/02/28 02:14:13;;;;;;;26.73;17.50;;;7.00;1.00;;;;;;7367704;19;20009;-71
2024/02/28 02:16:46;;;;;;;27.45;18.05;;;7.00;1.00;;;;;;7368066;19;20089;-71
2024/02/28 02:19:16;;;;;;;29.52;16.98;;;6.90;1.00;;;;;;7368974;19;20013;-70
2024/02/28 02:21:53;;;;;;;25.15;17.08;;;6.90;1.00;;;;;;7369418;19;20010;-70
2024/02/28 02:24:26;;;;;;;27.00;17.60;;;6.70;1.00;;;;;;7366348;19;20018;-70
2024/02/28 02:26:58;;;;;;;26.13;17.10;;;6.80;1.00;;;;;;7367644;19;20026;-70
2024/02/28 02:29:28;;;;;;;28.35;18.50;;;6.70;1.00;;;;;;7369651;19;20014;-70
2024/02/28 02:31:59;;;;;;;25.33;16.90;;;6.70;1.00;;;;;;7369155;19;20098;-71
2024/02/28 02:34:28;;;;;;;28.75;17.65;;;6.70;1.00;;;;;;7368101;19;20011;-70
2024/02/28 02:36:58;;;;;;;29.00;18.45;;;6.70;1.00;;;;;;7368156;19;20376;-70
2024/02/28 02:39:32;;;;;;;29.85;18.30;;;6.70;1.00;;;;;;7367986;19;20014;-70
2024/02/28 02:42:02;;;;;;;30.50;19.45;;;6.70;1.00;;;;;;7366996;19;20003;-70
2024/02/28 02:44:32;;;;;;;28.17;18.08;;;6.60;1.00;;;;;;7367808;19;20090;-71
2024/02/28 02:47:04;;;;;;;28.55;17.65;;;6.60;1.00;;;;;;7367564;19;20011;-70
2024/02/28 02:49:34;;;;;;;29.85;17.73;;;6.60;1.00;;;;;;7365696;19;20369;-70
2024/02/28 02:52:04;;;;;;;29.50;18.58;;;6.60;1.00;;;;;;7369498;19;20014;-70
2024/02/28 02:54:37;;;;;;;27.13;17.58;;;6.60;1.00;;;;;;7368666;19;20006;-70
2024/02/28 02:57:07;;;;;;;27.98;17.52;;;6.60;1.00;;;;;;7366008;19;20399;-70
2024/02/28 02:59:38;;;;;;;28.85;18.65;;;6.60;1.00;;;;;;7368399;19;20022;-70
2024/02/28 03:02:09;;;;;;;28.55;17.88;;;6.60;1.00;;;;;;7369171;19;20086;-70
2024/02/28 03:04:39;;;;;;;28.05;17.33;;;6.50;1.00;;;;;;7366637;19;20018;-69
2024/02/28 03:07:09;;;;;;;26.48;16.92;;;6.60;1.00;;;;;;7364517;19;20014;-69
2024/02/28 03:09:41;;;;;;;29.15;17.77;;;6.50;1.00;;;;;;7368475;19;20017;-71
2024/02/28 03:12:11;;;;;;;26.83;17.33;;;6.50;1.00;;;;;;7367657;19;20033;-69
2024/02/28 03:14:41;;;;;;;28.20;18.25;;;6.50;1.00;;;;;;7365783;19;20373;-69
2024/02/28 03:17:11;;;;;;;28.13;17.63;;;6.50;1.00;;;;;;7366463;19;20010;-70
2024/02/28 03:19:41;;;;;;;29.83;18.50;;;6.50;1.00;;;;;;7366388;19;20454;-69
2024/02/28 03:22:11;;;;;;;29.85;17.90;;;6.50;1.00;;;;;;7366720;19;20026;-69
2024/02/28 03:24:44;;;;;;;28.95;17.60;;;6.60;1.00;;;;;;7365335;19;20014;-70
2024/02/28 03:27:17;;;;;;;28.83;17.65;;;6.60;1.00;;;;;;7365921;19;20011;-70
2024/02/28 03:29:47;;;;;;;27.23;18.33;;;6.60;1.00;;;;;;7366596;19;20471;-70
2024/02/28 03:32:17;;;;;;;27.70;17.52;;;6.60;1.00;;;;;;7366715;19;20470;-70
2024/02/28 03:34:48;;;;;;;26.35;17.08;;;6.60;1.00;;;;;;7365332;19;20018;-71
2024/02/28 03:37:18;;;;;;;27.50;17.63;;;6.60;1.00;;;;;;7367012;19;20078;-71
2024/02/28 03:39:50;;;;;;;26.17;17.35;;;6.50;1.00;;;;;;7367193;19;20025;-70
2024/02/28 03:42:21;;;;;;;28.35;17.52;;;6.50;1.00;;;;;;7368003;19;20039;-70
2024/02/28 03:44:51;;;;;;;29.58;18.40;;;6.40;1.00;;;;;;7364726;19;20097;-71
2024/02/28 03:47:21;;;;;;;28.45;17.70;;;6.40;1.00;;;;;;7366309;19;20392;-70
2024/02/28 03:49:51;;;;;;;27.83;17.85;;;6.40;1.00;;;;;;7365882;19;20059;-70
2024/02/28 03:52:21;;;;;;;30.42;18.35;;;6.40;1.00;;;;;;7366142;19;20474;-70
2024/02/28 03:54:53;;;;;;;24.45;16.75;;;6.30;1.00;;;;;;7364843;19;20039;-71
2024/02/28 03:57:23;;;;;;;28.45;16.83;;;6.40;1.00;;;;;;7366120;19;20050;-71
2024/02/28 03:59:54;;;;;;;24.63;16.48;;;6.40;1.00;;;;;;7365287;19;20010;-70
2024/02/28 04:02:24;;;;;;;26.73;17.98;;;6.30;1.00;;;;;;7368194;19;20011;-71
2024/02/28 04:04:53;;;;;;;25.33;16.33;;;6.30;1.00;;;;;;7370645;19;20018;-69
2024/02/28 04:07:23;;;;;;;27.60;16.92;;;6.20;1.00;;;;;;7372715;19;20015;-71
2024/02/28 04:09:56;;;;;;;24.52;16.88;;;6.20;1.00;;;;;;7373545;19;20349;-70
2024/02/28 04:12:26;;;;;;;23.27;15.77;;;6.20;1.00;;;;;;7372810;19;20010;-70
2024/02/28 04:14:56;;;;;;;25.75;16.08;;;6.20;1.00;;;;;;7370968;19;20078;-70
2024/02/28 04:17:26;;;;;;;26.40;16.65;;;6.20;1.00;;;;;;7373279;19;20011;-71
2024/02/28 04:19:57;;;;;;;25.98;16.67;;;6.20;1.00;;;;;;7372685;19;20039;-69
2024/02/28 04:22:27;;;;;;;24.92;16.05;;;6.10;1.00;;;;;;7372606;19;20321;-70
2024/02/28 04:25:00;;;;;;;24.05;15.80;;;6.20;1.00;;;;;;7371346;19;20011;-69
2024/02/28 04:27:30;;;;;;;26.55;15.85;;;6.10;1.00;;;;;;7373060;19;20026;-69
2024/02/28 04:30:00;;;;;;;25.98;17.00;;;6.10;1.00;;;;;;7372040;19;20051;-70
2024/02/28 04:32:31;;;;;;;26.50;16.90;;;6.10;1.00;;;;;;7370505;19;20035;-70
2024/02/28 04:35:02;;;;;;;25.38;16.80;;;6.10;1.00;;;;;;7370723;19;20010;-70
2024/02/28 04:37:34;;;;;;;23.73;15.25;;;6.10;1.00;;;;;;7371157;19;20027;-70
2024/02/28 04:40:08;;;;;;;26.42;16.17;;;6.10;1.00;;;;;;7372000;19;20020;-70
2024/02/28 04:42:38;;;;;;;24.65;16.17;;;6.00;1.00;;;;;;7373860;19;21255;-70
2024/02/28 04:45:09;;;;;;;25.63;16.45;;;6.10;1.00;;;;;;7372111;19;20021;-70
2024/02/28 04:47:40;;;;;;;28.63;17.52;;;6.00;1.00;;;;;;7374238;19;20018;-69
2024/02/28 04:50:14;;;;;;;24.75;15.93;;;6.10;1.00;;;;;;7373177;19;20010;-70
2024/02/28 04:52:44;;;;;;;26.05;16.83;;;6.00;1.00;;;;;;7370844;19;20137;-71
2024/02/28 04:55:17;;;;;;;25.60;16.80;;;6.00;1.00;;;;;;7372332;19;20054;-71
2024/02/28 04:57:47;;;;;;;26.55;16.38;;;6.00;1.00;;;;;;7368036;19;20013;-69
2024/02/28 05:00:18;;;;;;;28.05;16.90;;;6.00;1.00;;;;;;7371451;19;20006;-70
2024/02/28 05:02:48;;;;;;;27.23;17.10;;;6.00;1.00;;;;;;7371005;19;20011;-71
2024/02/28 05:05:18;;;;;;;23.30;15.48;;;5.90;1.00;;;;;;7369211;19;20043;-69
2024/02/28 05:07:48;;;;;;;26.92;17.25;;;5.90;1.00;;;;;;7371279;19;20014;-70
2024/02/28 05:10:21;;;;;;;25.73;15.77;;;5.90;1.00;;;;;;7371327;19;20038;-71
2024/02/28 05:12:51;;;;;;;28.20;17.13;;;5.90;1.00;;;;;;7368445;19;20035;-71
2024/02/28 05:15:22;;;;;;;29.00;16.25;;;5.90;1.00;;;;;;7370476;19;20010;-70
2024/02/28 05:17:53;;;;;;;24.88;16.50;;;5.80;1.00;;;;;;7370668;19;20021;-70
2024/02/28 05:20:24;;;;;;;25.25;15.73;;;5.80;1.00;;;;;;7371579;19;20019;-71
2024/02/28 05:22:54;;;;;;;25.40;15.70;;;5.90;1.00;;;;;;7371373;19;20904;-69
2024/02/28 05:25:26;;;;;;;26.27;16.77;;;5.90;1.00;;;;;;7369828;19;20047;-71
2024/02/28 05:27:56;;;;;;;25.30;17.02;;;5.90;1.00;;;;;;7370892;19;20015;-70
2024/02/28 05:30:26;;;;;;;27.13;15.93;;;5.80;1.00;;;;;;7370976;19;20056;-70
2024/02/28 05:32:56;;;;;;;26.52;17.88;;;5.80;1.00;;;;;;7371018;19;20011;-69
2024/02/28 05:35:26;;;;;;;30.08;16.98;;;5.80;1.00;;;;;;7369389;19;20017;-70
2024/02/28 05:37:57;;;;;;;28.20;17.23;;;5.80;1.00;;;;;;7369978;19;20011;-70
2024/02/28 05:40:29;;;;;;;28.20;17.65;;;5.80;1.00;;;;;;7371092;19;20483;-71
2024/02/28 05:43:01;;;;;;;28.95;18.08;;;5.70;1.00;;;;;;7371215;19;20073;-71
2024/02/28 05:45:32;;;;;;;27.13;17.08;;;5.80;1.00;;;;;;7369469;19;20109;-71
2024/02/28 05:48:02;;;;;;;29.42;18.52;;;5.70;1.00;;;;;;7370820;19;20615;-71
2024/02/28 05:50:32;;;;;;;26.38;18.65;;;5.70;1.00;;;;;;7370356;19;20131;-70
2024/02/28 05:53:02;;;;;;;29.73;18.80;;;5.70;1.00;;;;;;7367689;19;20078;-70
2024/02/28 05:55:35;;;;;;;29.38;19.17;;;5.70;1.00;;;;;;7368456;19;20010;-71
2024/02/28 05:58:06;;;;;;;27.98;19.15;;;5.60;1.00;;;;;;7370714;19;20083;-69
2024/02/28 06:00:37;;;;;;;28.58;18.63;;;5.50;1.00;;;;;;7370800;19;20087;-70
2024/02/28 06:03:07;;;;;;;31.52;20.42;;;5.50;1.00;;;;;;7368919;19;20139;-70
2024/02/28 06:05:37;;;;;;;31.13;20.00;;;5.50;1.00;;;;;;7367366;19;20471;-70
2024/02/28 06:08:12;;;;;;;30.38;18.95;;;5.50;1.00;;;;;;7369334;19;20011;-70
2024/02/28 06:10:46;;;;;;;31.90;19.88;;;5.50;1.00;;;;;;7370036;19;20018;-69
2024/02/28 06:13:18;;;;;;;29.15;18.80;;;5.50;1.00;;;;;;7369994;19;20085;-70
2024/02/28 06:15:47;;;;;;;32.20;18.58;;;5.60;1.00;;;;;;7368193;19;20021;-71
2024/02/28 06:18:18;;;;;;;34.40;20.02;;;5.60;1.00;;;;;;7366999;19;20014;-70
2024/02/28 06:20:48;;;;;;;28.20;18.65;;;5.60;1.00;;;;;;7370503;19;20015;-69
2024/02/28 06:23:18;;;;;;;28.10;18.27;;;5.60;1.00;;;;;;7368623;19;20011;-70
2024/02/28 06:26:00;;;;;;;32.60;19.15;;;5.70;1.00;;;;;;7367071;19;20389;-69
2024/02/28 06:28:32;;;;;;;28.33;18.77;;;5.70;1.00;;;;;;7369553;19;20912;-70
2024/02/28 06:31:02;;;;;;;32.35;18.35;;;5.70;1.00;;;;;;7368477;19;20367;-70
2024/02/28 06:33:32;;;;;;;32.63;19.33;;;5.70;1.00;;;;;;7368812;19;20015;-70
2024/02/28 06:36:02;;;;;;;27.50;17.83;;;5.60;1.00;;;;;;7372009;19;20041;-70
2024/02/28 06:38:32;;;;;;;28.60;18.13;;;5.60;1.00;;;;;;7367923;19;20959;-70
2024/02/28 06:41:05;;;;;;;27.52;18.30;;;5.60;1.00;;;;;;7369325;19;20006;-69
2024/02/28 06:43:37;;;;;;;29.55;18.25;;;5.60;1.00;;;;;;7367394;19;20123;-69
2024/02/28 06:46:07;;;;;;;29.25;17.85;;;5.70;1.00;;;;;;7369357;19;20014;-70
2024/02/28 06:48:37;;;;;;;30.70;19.05;;;5.70;1.00;;;;;;7370724;19;20071;-69
2024/02/28 06:51:07;;;;;;;36.10;18.80;;;5.70;1.00;;;;;;7368976;19;20569;-70
2024/02/28 06:53:37;;;;;;;31.90;18.95;;;5.60;1.00;;;;;;7366097;19;20014;-70
2024/02/28 06:56:10;;;;;;;28.38;17.95;;;5.60;1.00;;;;;;7368483;19;20011;-69
2024/02/28 06:58:40;;;;;;;32.95;18.52;;;5.70;1.00;;;;;;7367023;19;20042;-69
2024/02/28 07:01:10;;;;;;;31.35;18.15;;;5.60;1.00;;;;;;7367931;19;20476;-70
2024/02/28 07:03:41;;;;;;;32.90;18.23;;;5.60;1.00;;;;;;7366387;19;20098;-69
2024/02/28 07:06:11;;;;;;;31.10;18.10;;;5.70;1.00;;;;;;7368113;19;20361;-69
2024/02/28 07:08:41;;;;;;;31.05;18.90;;;5.60;1.00;;;;;;7369633;19;20006;-69
2024/02/28 07:11:19;;;;;;;29.10;17.67;;;5.70;1.00;;;;;;7367906;19;20046;-70
2024/02/28 07:13:49;;;;;;;29.63;17.75;;;5.70;1.00;;;;;;7366684;19;20015;-69
2024/02/28 07:16:19;;;;;;;29.05;18.13;;;5.70;1.00;;;;;;7367504;19;20477;-71
2024/02/28 07:18:49;;;;;;;33.25;18.38;;;5.70;1.00;;;;;;7365970;19;20038;-70
2024/02/28 07:21:19;;;;;;;28.75;18.77;;;5.70;1.00;;;;;;7366540;19;20078;-71
2024/02/28 07:23:49;;;;;;;33.53;18.73;;;5.60;1.00;;;;;;7363605;19;20081;-70
2024/02/28 07:26:22;;;;;;;34.92;18.92;;;5.60;1.00;;;;;;7364139;19;20422;-70
2024/02/28 07:28:56;;;;;;;29.40;17.88;;;5.70;1.00;;;;;;7365520;19;20089;-69
2024/02/28 07:31:26;;;;;;;33.97;19.10;;;5.70;1.00;;;;;;7365784;19;20662;-70
2024/02/28 07:33:56;;;;;;;31.90;18.95;;;5.70;1.00;;;;;;7366435;19;20022;-68
2024/02/28 07:36:27;;;;;;;31.90;18.90;;;5.70;1.00;;;;;;7369700;19;20010;-70
2024/02/28 07:38:57;;;;;;;30.58;18.50;;;5.70;1.00;;;;;;7373577;19;20013;-70
2024/02/28 07:41:30;;;;;;;31.58;19.75;;;5.80;1.00;;;;;;7372695;19;20527;-70
2024/02/28 07:44:01;;;;;;;30.90;18.75;;;5.80;1.00;;;;;;7372745;19;20019;-70
2024/02/28 07:46:31;;;;;;;34.30;19.23;;;5.70;1.00;;;;;;7374360;19;20735;-69
2024/02/28 07:49:01;;;;;;;30.60;18.80;;;5.80;1.00;;;;;;7373487;19;20054;-69
2024/02/28 07:51:32;;;;;;;31.27;18.67;;;5.70;1.00;;;;;;7375243;19;20018;-70
2024/02/28 07:54:02;;;;;;;31.50;18.90;;;5.80;1.00;;;;;;7373117;19;20984;-69
2024/02/28 07:56:34;;;;;;;31.38;19.73;;;5.80;1.00;;;;;;7375066;19;20510;-69
2024/02/28 07:59:04;;;;;;;31.95;19.38;;;5.70;1.00;;;;;;7375206;19;20698;-70
2024/02/28 08:01:34;;;;;;;33.13;19.98;;;5.70;1.00;;;;;;7374299;19;20011;-69
2024/02/28 08:04:05;;;;;;;31.77;19.40;;;5.80;1.00;;;;;;7371822;19;20735;-70
2024/02/28 08:06:35;;;;;;;33.30;19.02;;;5.80;1.00;;;;;;7373748;19;20007;-70
2024/02/28 08:09:07;;;;;;;34.90;19.38;;;5.70;1.00;;;;;;7373383;19;20014;-70
2024/02/28 08:11:43;;;;;;;34.35;20.73;;;5.80;1.00;;;;;;7375000;19;20019;-70
2024/02/28 08:14:14;;;;;;;34.28;20.10;;;5.90;1.00;;;;;;7371271;19;20011;-69
2024/02/28 08:16:44;;;;;;;31.63;19.52;;;5.80;1.00;;;;;;7372406;19;20014;-71
2024/02/28 08:19:17;;;;;;;36.28;21.15;;;5.90;1.00;;;;;;7373717;19;20629;-70
2024/02/28 08:21:47;;;;;;;31.33;18.95;;;6.10;1.00;;;;;;7372479;19;20526;-69
2024/02/28 08:24:17;;;;;;;32.80;19.85;;;6.00;1.00;;;;;;7370823;19;20007;-72
2024/02/28 08:26:50;;;;;;;30.40;19.63;;;6.10;1.00;;;;;;7372826;19;20010;-70
2024/02/28 08:29:20;;;;;;;34.20;20.83;;;6.10;1.00;;;;;;7373699;19;20409;-70
2024/02/28 08:31:50;;;;;;;31.75;19.10;;;6.00;1.00;;;;;;7372485;19;20010;-71
2024/02/28 08:34:20;;;;;;;33.60;19.35;;;6.00;1.00;;;;;;7371779;19;20022;-70
2024/02/28 08:36:50;;;;;;;32.30;19.75;;;6.10;1.00;;;;;;7371526;19;20014;-70
2024/02/28 08:39:20;;;;;;;29.45;18.90;;;6.10;1.00;;;;;;7372347;19;20044;-70
2024/02/28 08:41:53;;;;;;;33.35;20.02;;;6.10;1.00;;;;;;7373319;19;20019;-70
2024/02/28 08:44:23;;;;;;;34.25;19.38;;;6.10;1.00;;;;;;7372127;19;22113;-70
2024/02/28 08:46:53;;;;;;;31.33;19.23;;;6.10;1.00;;;;;;7371725;19;22558;-69
2024/02/28 08:49:23;;;;;;;32.28;18.23;;;6.10;1.00;;;;;;7373578;19;20018;-70
2024/02/28 08:51:53;;;;;;;31.65;19.55;;;6.20;1.00;;;;;;7355508;19;20021;-69
2024/02/28 08:54:23;;;;;;;30.73;18.02;;;6.30;1.00;;;;;;7357506;19;20545;-69
2024/02/28 08:56:55;;;;;;;30.20;18.80;;;6.20;1.00;;;;;;7359226;19;20018;-69
2024/02/28 08:59:32;;;;;;;33.28;19.52;;;6.30;1.00;;;;;;7359234;19;21305;-69
2024/02/28 09:02:03;;;;;;;30.55;18.58;;;6.40;1.00;;;;;;7357587;19;20010;-69
2024/02/28 09:04:33;;;;;;;32.25;19.70;;;6.40;1.00;;;;;;7360745;19;20015;-70
2024/02/28 09:07:03;;;;;;;31.98;18.50;;;6.50;1.00;;;;;;7361452;19;20014;-69
2024/02/28 09:09:37;;;;;;;30.13;18.52;;;6.40;1.00;;;;;;7360348;19;20011;-69
2024/02/28 09:12:10;;;;;;;31.65;18.42;;;6.50;1.00;;;;;;7355034;19;20089;-70
2024/02/28 09:14:41;;;;;;;31.73;19.08;;;6.50;1.00;;;;;;7356601;19;20021;-70
2024/02/28 09:17:11;;;;;;;31.25;18.00;;;6.50;1.00;;;;;;7357332;19;20011;-69
2024/02/28 09:19:41;;;;;;;31.20;18.40;;;6.50;1.00;;;;;;7354526;19;20612;-69
2024/02/28 09:22:11;;;;;;;29.00;18.77;;;6.70;1.00;;;;;;7355675;19;20471;-69
2024/02/28 09:24:41;;;;;;;31.95;18.92;;;6.70;1.00;;;;;;7359264;19;20113;-69
2024/02/28 09:27:13;;;;;;;28.58;18.50;;;6.60;1.00;;;;;;7358647;19;21332;-70
2024/02/28 09:29:47;;;;;;;29.17;18.60;;;6.60;1.00;;;;;;7355734;19;20003;-69
2024/02/28 09:32:18;;;;;;;32.13;19.40;;;6.60;1.00;;;;;;7355534;19;20007;-70
2024/02/28 09:34:50;;;;;;;29.10;18.42;;;6.40;1.00;;;;;;7357045;19;20014;-70
2024/02/28 09:37:21;;;;;;;29.75;18.83;;;6.50;1.00;;;;;;7357112;19;20040;-70
2024/02/28 09:39:51;;;;;;;29.88;18.33;;;6.80;1.00;;;;;;7356355;19;20508;-70
2024/02/28 09:42:23;;;;;;;29.98;19.23;;;6.60;1.00;;;;;;7354828;19;20014;-69
2024/02/28 09:44:53;;;;;;;29.63;18.67;;;6.80;1.00;;;;;;7356280;19;20011;-70
2024/02/28 09:47:23;;;;;;;30.35;18.70;;;6.90;1.00;;;;;;7357083;19;20010;-70
2024/02/28 09:49:56;;;;;;;28.42;18.58;;;6.80;1.00;;;;;;7358965;19;20451;-70
2024/02/28 09:52:27;;;;;;;32.10;18.98;;;6.90;1.00;;;;;;7354600;19;20015;-69
2024/02/28 09:54:57;;;;;;;28.45;18.73;;;6.80;1.00;;;;;;7355659;19;20022;-71
2024/02/28 09:57:30;;;;;;;29.45;17.38;;;7.00;1.00;;;;;;7356057;19;21170;-70
2024/02/28 10:00:03;;;;;;;27.48;17.73;;;6.80;1.00;;;;;;7351411;19;20014;-70
2024/02/28 10:02:36;;;;;;;29.02;17.58;;;7.00;1.00;;;;;;7354149;19;20011;-70
2024/02/28 10:05:07;;;;;;;30.73;18.48;;;7.00;1.00;;;;;;7353450;19;20124;-70
2024/02/28 10:07:38;;;;;;;31.27;19.63;;;7.00;1.00;;;;;;7354648;19;20006;-70
2024/02/28 10:10:10;;;;;;;28.80;17.45;;;7.10;1.00;;;;;;7356358;19;20017;-70
2024/02/28 10:12:46;;;;;;;29.77;17.85;;;7.10;1.00;;;;;;7353475;19;20029;-71
2024/02/28 10:15:17;;;;;;;27.85;18.42;;;7.20;1.00;;;;;;7353486;19;20030;-71
2024/02/28 10:17:47;;;;;;;27.42;16.67;;;7.20;1.00;;;;;;7357121;19;20694;-70
2024/02/28 10:20:17;;;;;;;29.30;17.48;;;7.10;1.00;;;;;;7353698;19;20014;-70
2024/02/28 10:22:47;;;;;;;27.02;17.83;;;7.10;1.00;;;;;;7353032;19;20018;-70
2024/02/28 10:25:17;;;;;;;31.25;18.02;;;6.90;1.00;;;;;;7355008;19;20018;-69
2024/02/28 10:27:50;;;;;;;30.85;17.80;;;7.00;1.00;;;;;;7357157;19;20013;-69
2024/02/28 10:30:21;;;;;;;30.55;18.15;;;7.10;1.00;;;;;;7353970;19;20408;-69
2024/02/28 10:32:52;;;;;;;58.22;31.20;;;7.10;1.00;;;;;;7353922;19;20029;-69
2024/02/28 10:35:25;;;;;;;36.33;22.48;;;7.20;1.00;;;;;;7354658;19;20372;-69
2024/02/28 10:37:56;;;;;;;36.40;21.80;;;7.30;1.00;;;;;;7354946;19;20137;-70
2024/02/28 10:40:26;;;;;;;30.77;18.58;;;7.20;1.00;;;;;;7357057;19;20015;-69
2024/02/28 10:42:59;;;;;;;33.92;19.00;;;7.20;1.00;;;;;;7354347;19;20117;-69
2024/02/28 10:45:31;;;;;;;34.05;20.30;;;7.10;1.00;;;;;;7355271;19;20397;-70
2024/02/28 10:48:23;;;;;;;30.30;19.45;;;7.10;1.00;;;;;;7254601;19;2004005;-69
2024/02/28 10:50:54;;;;;;;30.88;17.40;;;7.10;1.00;;;;;;7356486;19;21248;-69
2024/02/28 10:53:32;;;;;;;27.60;17.90;;;7.00;1.00;;;;;;7355119;19;20010;-69
2024/02/28 10:56:05;;;;;;;29.65;17.60;;;7.10;1.00;;;;;;7353241;19;20349;-69
2024/02/28 10:58:42;;;;;;;26.33;17.30;;;7.10;1.00;;;;;;7354214;19;20461;-69
2024/02/28 11:01:14;;;;;;;33.72;18.65;;;7.30;1.00;;;;;;7352756;19;20085;-70
2024/02/28 11:03:45;;;;;;;27.15;17.10;;;7.40;1.00;;;;;;7351212;19;20045;-69
2024/02/28 11:06:22;;;;;;;29.48;17.27;;;7.40;1.00;;;;;;7354056;19;20078;-69
2024/02/28 11:08:56;;;;;;;28.60;17.77;;;7.40;1.00;;;;;;7354351;19;20019;-69
2024/02/28 11:11:26;;;;;;;;;;;7.40;1.00;;;;;;7354340;19;20053;-69
2024/02/28 11:14:00;;;;;;;31.15;17.40;;;7.30;1.00;;;;;;7350843;19;19915;-69
2024/02/28 11:16:31;;;;;;;30.60;19.10;;;7.10;1.00;;;;;;7354114;19;20032;-69
2024/02/28 11:19:03;;;;;;;31.15;19.13;;;7.00;1.00;;;;;;7350185;19;20007;-69
2024/02/28 11:21:37;;;;;;;33.00;19.00;;;7.00;1.00;;;;;;7353730;19;20381;-69
2024/02/28 11:24:09;;;;;;;33.53;18.55;;;7.10;1.00;;;;;;7352160;19;20018;-69
2024/02/28 11:26:39;;;;;;;30.95;19.05;;;7.10;1.00;;;;;;7352137;19;20010;-70
2024/02/28 11:29:13;;;;;;;32.50;19.30;;;7.10;1.00;;;;;;7356241;19;20027;-69
2024/02/28 11:31:43;;;;;;;30.05;17.75;;;6.90;1.00;;;;;;7351728;19;20119;-69
2024/02/28 11:34:13;;;;;;;29.35;18.88;;;6.80;1.00;;;;;;7350220;19;20512;-70
2024/02/28 11:36:43;;;;;;;32.42;18.77;;;6.80;1.00;;;;;;7350028;19;20010;-69
2024/02/28 11:39:16;;;;;;;31.77;19.05;;;6.90;1.00;;;;;;7351753;19;20015;-70
2024/02/28 11:41:48;;;;;;;29.88;17.95;;;6.80;1.00;;;;;;7352846;19;20811;-70
2024/02/28 11:44:21;;;;;;;33.28;19.42;;;7.00;1.00;;;;;;7349600;19;20788;-69
2024/02/28 11:46:52;;;;;;;33.40;18.90;;;7.00;1.00;;;;;;7353709;19;20039;-69
2024/02/28 11:49:22;;;;;;;29.10;19.25;;;7.00;1.00;;;;;;7352753;19;20336;-68
2024/02/28 11:51:52;;;;;;;26.67;17.45;;;6.90;1.00;;;;;;7352865;19;20014;-70
2024/02/28 11:54:22;;;;;;;32.55;18.25;;;6.80;1.00;;;;;;7350037;19;20015;-70
2024/02/28 11:56:52;;;;;;;30.27;17.90;;;6.90;1.00;;;;;;7352641;19;20375;-70
2024/02/28 11:59:27;;;;;;;29.20;17.17;;;7.00;1.00;;;;;;7352895;19;20018;-70
2024/02/28 12:01:57;;;;;;;30.60;17.48;;;7.10;1.00;;;;;;7352954;19;20007;-72
2024/02/28 12:04:27;;;;;;;29.77;18.83;;;7.10;1.00;;;;;;7350332;19;20403;-70
2024/02/28 12:06:59;;;;;;;28.95;18.00;;;7.10;1.00;;;;;;7351825;19;20010;-70
2024/02/28 12:09:30;;;;;;;29.00;17.50;;;7.10;1.00;;;;;;7353519;19;20915;-69
2024/02/28 12:12:11;;;;;;;31.13;17.83;;;7.30;1.00;;;;;;7351124;19;20007;-71
2024/02/28 12:14:44;;;;;;;25.55;16.40;;;7.30;1.00;;;;;;7352778;19;20014;-70
2024/02/28 12:17:16;;;;;;;27.93;17.27;;;7.10;1.00;;;;;;7353315;19;20019;-70
2024/02/28 12:19:46;;;;;;;29.75;16.48;;;6.90;1.00;;;;;;7352735;19;20006;-71
2024/02/28 12:22:16;;;;;;;26.70;16.00;;;7.10;1.00;;;;;;7350912;19;20018;-71
2024/02/28 12:24:46;;;;;;;29.20;18.08;;;7.40;1.00;;;;;;7356254;19;20010;-70
2024/02/28 12:27:16;;;;;;;25.05;16.60;;;7.50;1.00;;;;;;7355502;19;20123;-70
2024/02/28 12:29:49;;;;;;;28.58;16.27;;;7.40;1.00;;;;;;7358357;19;20015;-70
2024/02/28 12:32:19;;;;;;;26.67;16.85;;;7.30;1.00;;;;;;7356556;19;20014;-69
2024/02/28 12:34:49;;;;;;;27.08;16.42;;;7.20;1.00;;;;;;7358073;19;20007;-69
2024/02/28 12:37:20;;;;;;;32.10;17.85;;;7.20;1.00;;;;;;7359946;19;20687;-70
2024/02/28 12:39:51;;;;;;;29.73;17.38;;;7.30;1.00;;;;;;7359949;19;20641;-70
2024/02/28 12:42:21;;;;;;;27.15;16.73;;;7.20;1.00;;;;;;7357063;19;20450;-72
2024/02/28 12:44:54;;;;;;;27.00;16.63;;;7.20;1.00;;;;;;7355891;19;20527;-71
2024/02/28 12:47:24;;;;;;;25.70;15.85;;;7.20;1.00;;;;;;7357330;19;20006;-70
2024/02/28 12:49:54;;;;;;;25.83;16.08;;;7.30;1.00;;;;;;7360361;19;20017;-70
2024/02/28 12:52:24;;;;;;;27.35;17.17;;;7.30;1.00;;;;;;7356773;19;20438;-69
2024/02/28 12:54:54;;;;;;;28.05;16.75;;;7.10;1.00;;;;;;7357243;19;20010;-69
2024/02/28 12:57:24;;;;;;;27.25;17.13;;;7.00;1.00;;;;;;7359282;19;20039;-68
2024/02/28 12:59:58;;;;;;;30.88;17.88;;;7.10;1.00;;;;;;7359899;19;20093;-68
2024/02/28 13:02:28;;;;;;;29.17;17.90;;;7.20;1.00;;;;;;7357852;19;20011;-69
2024/02/28 13:04:58;;;;;;;24.33;15.32;;;7.30;1.00;;;;;;7357803;19;21288;-69
2024/02/28 13:07:29;;;;;;;26.25;16.30;;;7.30;1.00;;;;;;7353919;19;20014;-70